createdAt,value
2023-03-24T00:00:52.990Z,87.55
2023-03-24T00:01:40.025Z,87.26
2023-03-24T00:02:35.044Z,87.23
2023-03-24T00:03:32.261Z,86.91
2023-03-24T00:04:26.052Z,87.24
2023-03-24T00:05:21.017Z,87.29
2023-03-24T00:06:19.985Z,87.00
2023-03-24T00:07:01.006Z,86.65
2023-03-24T00:07:41.220Z,87.00
2023-03-24T00:08:23.994Z,86.67
2023-03-24T00:09:04.180Z,86.74
2023-03-24T00:09:43.983Z,86.50
2023-03-24T00:10:30.704Z,86.51
2023-03-24T00:11:15.988Z,86.49
2023-03-24T00:11:56.146Z,86.66
2023-03-24T00:12:37.038Z,86.58
2023-03-24T00:13:17.103Z,86.57
2023-03-24T00:13:56.988Z,86.11
2023-03-24T00:14:38.612Z,86.18
2023-03-24T00:15:25.008Z,86.40
2023-03-24T00:16:06.156Z,86.45
2023-03-24T00:16:51.983Z,86.19
2023-03-24T00:17:32.283Z,86.35
2023-03-24T00:18:17.001Z,86.28
2023-03-24T00:18:58.240Z,86.64
2023-03-24T00:19:39.975Z,86.57
2023-03-24T00:20:22.268Z,86.63
2023-03-24T00:21:04.969Z,86.28
2023-03-24T00:21:46.087Z,86.96
2023-03-24T00:22:28.026Z,87.00
2023-03-24T00:23:08.081Z,87.44
2023-03-24T00:23:50.017Z,87.20
2023-03-24T00:24:30.110Z,87.63
2023-03-24T00:25:10.991Z,87.59
2023-03-24T00:25:53.532Z,87.78
2023-03-24T00:26:34.968Z,87.91
2023-03-24T00:27:15.577Z,87.83
2023-03-24T00:27:58.104Z,87.88
2023-03-24T00:28:42.779Z,87.94
2023-03-24T00:29:23.006Z,87.93
2023-03-24T00:30:03.740Z,87.90
2023-03-24T00:30:44.073Z,88.10
2023-03-24T00:31:25.378Z,87.96
2023-03-24T00:32:06.971Z,88.00
2023-03-24T00:32:47.092Z,87.96
2023-03-24T00:33:27.994Z,88.03
2023-03-24T00:34:08.803Z,87.86
2023-03-24T00:34:50.004Z,87.94
2023-03-24T00:35:31.053Z,88.45
2023-03-24T00:36:15.017Z,88.41
2023-03-24T00:36:57.079Z,88.50
2023-03-24T00:37:37.011Z,88.66
2023-03-24T00:38:17.097Z,88.60
2023-03-24T00:38:58.001Z,88.30
2023-03-24T00:39:40.068Z,87.87
2023-03-24T00:40:25.012Z,87.68
2023-03-24T00:41:05.126Z,87.55
2023-03-24T00:41:44.959Z,87.79
2023-03-24T00:42:25.224Z,87.63
2023-03-24T00:43:05.975Z,87.94
2023-03-24T00:43:39.938Z,87.75
2023-03-24T00:44:29.958Z,87.97
2023-03-24T00:45:06.115Z,87.65
2023-03-24T00:45:52.987Z,87.68
2023-03-24T00:46:29.976Z,87.20
2023-03-24T00:47:04.075Z,87.26
2023-03-24T00:47:45.085Z,87.05
2023-03-24T00:48:24.139Z,87.03
2023-03-24T00:49:05.673Z,87.15
2023-03-24T00:49:49.985Z,87.02
2023-03-24T00:50:27.132Z,87.01
2023-03-24T00:51:09.994Z,86.93
2023-03-24T00:51:51.187Z,86.81
2023-03-24T00:52:32.963Z,86.88
2023-03-24T00:53:15.751Z,87.07
2023-03-24T00:53:55.963Z,86.70
2023-03-24T00:54:36.461Z,86.68
2023-03-24T00:55:21.945Z,86.30
2023-03-24T00:56:03.063Z,86.37
2023-03-24T00:56:47.017Z,86.72
2023-03-24T00:57:29.880Z,86.73
2023-03-24T00:58:10.964Z,86.51
2023-03-24T00:58:51.090Z,86.69
2023-03-24T00:59:30.951Z,86.38
2023-03-24T01:00:19.931Z,86.34
2023-03-24T01:01:02.968Z,86.29
2023-03-24T01:01:43.432Z,86.41
2023-03-24T01:02:29.075Z,86.35
2023-03-24T01:03:09.577Z,86.20
2023-03-24T01:03:57.000Z,86.14
2023-03-24T01:04:38.048Z,86.47
2023-03-24T01:05:18.982Z,86.21
2023-03-24T01:06:03.095Z,86.35
2023-03-24T01:06:44.990Z,86.23
2023-03-24T01:07:25.045Z,86.15
2023-03-24T01:08:09.967Z,86.04
2023-03-24T01:08:53.831Z,86.18
2023-03-24T01:09:33.942Z,86.27
2023-03-24T01:10:20.047Z,86.38
2023-03-24T01:11:01.016Z,86.05
2023-03-24T01:11:47.080Z,86.11
2023-03-24T01:12:27.936Z,85.94
2023-03-24T01:13:16.953Z,85.56
2023-03-24T01:13:52.259Z,85.45
2023-03-24T01:14:38.928Z,85.56
2023-03-24T01:15:16.886Z,85.68
2023-03-24T01:16:05.014Z,85.27
2023-03-24T01:16:39.387Z,85.43
2023-03-24T01:17:28.997Z,85.35
2023-03-24T01:18:03.133Z,85.66
2023-03-24T01:18:46.961Z,85.69
2023-03-24T01:19:21.188Z,85.66
2023-03-24T01:19:54.856Z,85.56
2023-03-24T01:20:40.941Z,85.12
2023-03-24T01:21:16.088Z,85.37
2023-03-24T01:21:50.920Z,85.10
2023-03-24T01:22:36.935Z,85.18
2023-03-24T01:23:12.070Z,85.18
2023-03-24T01:23:45.786Z,85.22
2023-03-24T01:24:27.947Z,85.19
2023-03-24T01:25:02.022Z,85.15
2023-03-24T01:25:37.317Z,85.15
2023-03-24T01:26:17.938Z,85.08
2023-03-24T01:26:52.371Z,85.43
2023-03-24T01:27:27.256Z,85.30
2023-03-24T01:28:06.900Z,85.42
2023-03-24T01:28:43.705Z,85.17
2023-03-24T01:29:17.714Z,85.43
2023-03-24T01:29:58.950Z,85.14
2023-03-24T01:30:35.042Z,85.20
2023-03-24T01:31:10.268Z,85.33
2023-03-24T01:31:49.937Z,85.22
2023-03-24T01:32:24.041Z,85.05
2023-03-24T01:32:58.236Z,85.07
2023-03-24T01:33:38.911Z,84.89
2023-03-24T01:34:13.027Z,84.95
2023-03-24T01:34:46.784Z,84.99
2023-03-24T01:35:29.611Z,84.92
2023-03-24T01:36:04.045Z,85.38
2023-03-24T01:36:37.767Z,85.20
2023-03-24T01:37:18.916Z,85.01
2023-03-24T01:37:53.008Z,85.51
2023-03-24T01:38:26.758Z,85.29
2023-03-24T01:39:08.906Z,85.34
2023-03-24T01:39:42.994Z,86.03
2023-03-24T01:40:26.655Z,86.02
2023-03-24T01:41:07.944Z,85.47
2023-03-24T01:41:46.157Z,85.93
2023-03-24T01:42:23.732Z,86.25
2023-03-24T01:43:04.912Z,86.44
2023-03-24T01:43:42.005Z,86.07
2023-03-24T01:44:44.906Z,86.32
2023-03-24T01:45:49.023Z,86.47
2023-03-24T01:46:29.925Z,86.42
2023-03-24T01:47:14.019Z,86.52
2023-03-24T01:47:54.911Z,86.65
2023-03-24T01:48:43.017Z,86.81
2023-03-24T01:49:24.923Z,87.03
2023-03-24T01:50:08.007Z,86.83
2023-03-24T01:50:52.915Z,87.18
2023-03-24T01:51:50.914Z,86.95
2023-03-24T01:52:49.898Z,87.26
2023-03-24T01:53:46.881Z,87.18
2023-03-24T01:54:54.912Z,86.58
2023-03-24T01:55:48.901Z,87.06
2023-03-24T01:56:48.955Z,86.98
2023-03-24T01:57:48.889Z,86.77
2023-03-24T01:58:34.040Z,86.76
2023-03-24T01:59:25.881Z,87.14
2023-03-24T02:00:11.555Z,87.33
2023-03-24T02:00:52.982Z,87.20
2023-03-24T02:01:37.046Z,87.29
2023-03-24T02:02:19.928Z,86.85
2023-03-24T02:03:08.024Z,87.32
2023-03-24T02:03:48.969Z,87.64
2023-03-24T02:04:29.069Z,87.80
2023-03-24T02:05:15.880Z,87.98
2023-03-24T02:06:02.185Z,88.23
2023-03-24T02:06:47.877Z,88.39
2023-03-24T02:08:13.926Z,87.80
2023-03-24T02:09:10.896Z,88.28
2023-03-24T02:10:04.921Z,87.75
2023-03-24T02:10:58.884Z,87.82
2023-03-24T02:11:53.877Z,87.67
2023-03-24T02:12:47.878Z,87.61
2023-03-24T02:13:34.899Z,87.69
2023-03-24T02:14:11.235Z,87.64
2023-03-24T02:14:58.897Z,87.47
2023-03-24T02:15:35.989Z,87.98
2023-03-24T02:16:58.897Z,87.85
2023-03-24T02:18:06.140Z,87.45
2023-03-24T02:19:46.911Z,87.77
2023-03-24T02:21:05.124Z,88.00
2023-03-24T02:22:57.868Z,88.48
2023-03-24T02:23:55.631Z,88.16
2023-03-24T02:25:18.904Z,87.97
2023-03-24T02:26:04.985Z,87.75
2023-03-24T02:27:42.896Z,88.01
2023-03-24T02:28:56.996Z,87.41
2023-03-24T02:30:00.890Z,87.28
2023-03-24T02:31:04.911Z,87.01
2023-03-24T02:31:58.012Z,87.16
2023-03-24T02:33:24.184Z,87.13
2023-03-24T02:34:18.899Z,86.73
2023-03-24T02:35:19.989Z,87.03
2023-03-24T02:36:33.883Z,86.62
2023-03-24T02:37:47.988Z,86.69
2023-03-24T02:38:59.889Z,86.81
2023-03-24T02:39:51.948Z,86.41
2023-03-24T02:40:47.290Z,86.42
2023-03-24T02:42:10.924Z,86.39
2023-03-24T02:43:11.909Z,86.63
2023-03-24T02:44:07.858Z,86.35
2023-03-24T02:45:20.296Z,86.88
2023-03-24T02:46:46.883Z,86.67
2023-03-24T02:47:43.938Z,86.54
2023-03-24T02:48:29.014Z,86.53
2023-03-24T02:49:35.864Z,86.67
2023-03-24T02:50:36.954Z,86.36
2023-03-24T02:51:38.851Z,86.51
2023-03-24T02:52:32.978Z,86.55
2023-03-24T02:53:38.895Z,86.44
2023-03-24T02:54:51.998Z,86.26
2023-03-24T02:55:59.852Z,86.20
2023-03-24T02:57:00.963Z,86.25
2023-03-24T02:58:00.853Z,86.63
2023-03-24T02:58:59.854Z,86.63
2023-03-24T02:59:53.504Z,86.40
2023-03-24T03:00:56.857Z,86.56
2023-03-24T03:01:41.232Z,86.47
2023-03-24T03:02:45.903Z,86.32
2023-03-24T03:03:28.077Z,86.22
2023-03-24T03:04:30.943Z,86.17
2023-03-24T03:05:14.359Z,85.97
2023-03-24T03:06:32.847Z,86.16
2023-03-24T03:07:10.075Z,86.31
2023-03-24T03:07:58.861Z,86.21
2023-03-24T03:08:34.114Z,86.21
2023-03-24T03:09:25.841Z,86.07
2023-03-24T03:10:22.863Z,86.36
2023-03-24T03:11:04.946Z,86.33
2023-03-24T03:11:47.837Z,86.48
2023-03-24T03:12:29.911Z,86.59
2023-03-24T03:13:17.850Z,86.65
2023-03-24T03:14:40.949Z,86.49
2023-03-24T03:15:25.879Z,86.46
2023-03-24T03:16:14.946Z,86.78
2023-03-24T03:17:18.840Z,86.74
2023-03-24T03:18:27.704Z,86.56
2023-03-24T03:19:10.888Z,86.48
2023-03-24T03:20:06.587Z,86.71
2023-03-24T03:20:56.838Z,86.26
2023-03-24T03:21:44.938Z,86.54
2023-03-24T03:22:31.870Z,86.30
2023-03-24T03:23:19.961Z,86.47
2023-03-24T03:24:14.833Z,86.30
2023-03-24T03:24:58.923Z,86.39
2023-03-24T03:25:44.838Z,86.52
2023-03-24T03:26:30.868Z,86.04
2023-03-24T03:27:14.840Z,86.19
2023-03-24T03:27:49.735Z,86.15
2023-03-24T03:28:31.812Z,86.08
2023-03-24T03:29:18.936Z,85.99
2023-03-24T03:30:18.463Z,86.03
2023-03-24T03:31:06.815Z,86.38
2023-03-24T03:31:55.844Z,86.24
2023-03-24T03:32:36.307Z,86.03
2023-03-24T03:33:33.824Z,86.12
2023-03-24T03:34:34.548Z,86.31
2023-03-24T03:35:42.927Z,86.15
2023-03-24T03:36:32.012Z,86.04
2023-03-24T03:37:49.851Z,85.67
2023-03-24T03:39:06.709Z,85.94
2023-03-24T03:40:07.851Z,86.09
2023-03-24T03:40:56.735Z,86.47
2023-03-24T03:41:44.800Z,86.67
2023-03-24T03:42:19.025Z,86.56
2023-03-24T03:43:05.854Z,86.21
2023-03-24T03:43:39.641Z,86.38
2023-03-24T03:44:26.811Z,86.24
2023-03-24T03:45:00.742Z,86.12
2023-03-24T03:45:48.843Z,86.49
2023-03-24T03:46:22.865Z,86.31
2023-03-24T03:47:09.826Z,86.50
2023-03-24T03:47:43.804Z,86.38
2023-03-24T03:48:32.828Z,86.47
2023-03-24T03:49:07.335Z,86.48
2023-03-24T03:49:53.808Z,86.60
2023-03-24T03:50:27.989Z,86.45
2023-03-24T03:51:15.784Z,86.41
2023-03-24T03:51:50.604Z,86.79
2023-03-24T03:52:37.837Z,86.56
2023-03-24T03:53:13.815Z,86.84
2023-03-24T03:54:04.826Z,86.76
2023-03-24T03:54:38.988Z,86.89
2023-03-24T03:55:12.892Z,86.99
2023-03-24T03:55:53.799Z,87.05
2023-03-24T03:56:32.918Z,87.30
2023-03-24T03:57:06.774Z,87.12
2023-03-24T03:57:47.800Z,87.34
2023-03-24T03:58:21.988Z,87.60
2023-03-24T03:58:55.881Z,87.52
2023-03-24T03:59:43.831Z,87.61
2023-03-24T04:00:26.902Z,87.45
2023-03-24T04:01:00.679Z,87.22
2023-03-24T04:01:43.834Z,87.22
2023-03-24T04:02:53.964Z,87.41
2023-03-24T04:04:13.788Z,87.51
2023-03-24T04:05:54.856Z,87.50
2023-03-24T04:06:53.844Z,88.03
2023-03-24T04:08:35.803Z,87.69
2023-03-24T04:09:25.835Z,87.52
2023-03-24T04:10:26.816Z,87.42
2023-03-24T04:11:39.847Z,88.06
2023-03-24T04:12:34.995Z,87.70
2023-03-24T04:13:36.802Z,87.91
2023-03-24T04:14:27.909Z,87.72
2023-03-24T04:15:34.804Z,87.73
2023-03-24T04:16:22.897Z,87.96
2023-03-24T04:17:32.824Z,88.36
2023-03-24T04:19:00.000Z,87.98
2023-03-24T04:20:03.784Z,88.47
2023-03-24T04:21:33.501Z,88.78
2023-03-24T04:22:36.819Z,88.50
2023-03-24T04:23:58.897Z,88.31
2023-03-24T04:24:46.793Z,88.83
2023-03-24T04:25:36.149Z,88.65
2023-03-24T04:27:06.794Z,89.19
2023-03-24T04:28:03.793Z,89.17
2023-03-24T04:29:13.426Z,89.40
2023-03-24T04:30:20.796Z,89.02
2023-03-24T04:31:24.381Z,89.32
2023-03-24T04:32:47.799Z,89.59
2023-03-24T04:33:37.793Z,89.64
2023-03-24T04:34:37.272Z,89.59
2023-03-24T04:35:47.039Z,89.53
2023-03-24T04:36:42.484Z,89.43
2023-03-24T04:37:32.784Z,89.48
2023-03-24T04:38:23.264Z,89.81
2023-03-24T04:39:05.821Z,89.69
2023-03-24T04:39:49.892Z,89.95
2023-03-24T04:40:30.782Z,90.03
2023-03-24T04:41:14.048Z,90.02
2023-03-24T04:41:55.767Z,90.07
2023-03-24T04:42:48.854Z,89.97
2023-03-24T04:43:33.800Z,89.91
2023-03-24T04:44:20.806Z,90.10
2023-03-24T04:44:57.676Z,89.96
2023-03-24T04:45:47.000Z,89.90
2023-03-24T04:46:22.380Z,90.55
2023-03-24T04:47:12.751Z,90.29
2023-03-24T04:47:55.140Z,90.85
2023-03-24T04:48:41.741Z,90.83
2023-03-24T04:49:15.731Z,91.16
2023-03-24T04:49:55.752Z,91.56
2023-03-24T04:50:43.929Z,91.76
2023-03-24T04:51:20.609Z,91.45
2023-03-24T04:52:01.756Z,91.19
2023-03-24T04:52:35.985Z,91.75
2023-03-24T04:53:10.667Z,91.90
2023-03-24T04:53:51.744Z,91.77
2023-03-24T04:54:28.203Z,92.09
2023-03-24T04:55:30.796Z,92.57
2023-03-24T04:56:41.893Z,92.95
2023-03-24T04:57:21.768Z,92.44
2023-03-24T04:58:01.853Z,92.67
2023-03-24T04:58:41.750Z,92.93
2023-03-24T04:59:22.861Z,93.02
2023-03-24T05:00:03.740Z,92.92
2023-03-24T05:00:50.796Z,93.36
2023-03-24T05:01:30.191Z,93.36
2023-03-24T05:02:11.858Z,93.74
2023-03-24T05:02:52.788Z,93.76
2023-03-24T05:03:37.820Z,93.69
2023-03-24T05:04:18.818Z,93.05
2023-03-24T05:04:58.933Z,93.45
2023-03-24T05:05:39.750Z,93.45
2023-03-24T05:06:20.751Z,93.11
2023-03-24T05:06:55.094Z,93.50
2023-03-24T05:07:41.751Z,93.53
2023-03-24T05:08:16.445Z,93.34
2023-03-24T05:09:05.711Z,93.36
2023-03-24T05:09:39.821Z,93.30
2023-03-24T05:10:27.736Z,93.48
2023-03-24T05:11:02.068Z,93.72
2023-03-24T05:11:42.771Z,93.42
2023-03-24T05:12:22.914Z,93.39
2023-03-24T05:13:03.728Z,93.64
2023-03-24T05:13:44.487Z,93.60
2023-03-24T05:14:25.716Z,93.57
2023-03-24T05:15:06.876Z,93.38
2023-03-24T05:15:47.718Z,93.50
2023-03-24T05:16:28.933Z,93.68
2023-03-24T05:17:08.782Z,93.25
2023-03-24T05:17:48.929Z,93.43
2023-03-24T05:18:29.736Z,94.01
2023-03-24T05:19:11.156Z,93.64
2023-03-24T05:19:51.756Z,93.30
2023-03-24T05:20:32.977Z,93.67
2023-03-24T05:21:13.731Z,93.81
2023-03-24T05:21:54.588Z,94.23
2023-03-24T05:22:34.747Z,93.85
2023-03-24T05:23:14.957Z,93.98
2023-03-24T05:23:55.742Z,93.82
2023-03-24T05:24:35.996Z,93.71
2023-03-24T05:25:16.769Z,93.95
2023-03-24T05:25:56.867Z,94.15
2023-03-24T05:26:37.844Z,94.09
2023-03-24T05:27:17.813Z,93.75
2023-03-24T05:27:58.738Z,93.79
2023-03-24T05:28:38.843Z,93.65
2023-03-24T05:29:18.747Z,94.30
2023-03-24T05:29:58.830Z,94.53
2023-03-24T05:30:39.754Z,94.06
2023-03-24T05:31:20.909Z,94.18
2023-03-24T05:32:01.720Z,93.99
2023-03-24T05:32:44.311Z,94.19
2023-03-24T05:33:26.743Z,94.51
2023-03-24T05:34:07.117Z,94.46
2023-03-24T05:34:46.688Z,94.52
2023-03-24T05:35:27.105Z,94.44
2023-03-24T05:36:07.726Z,94.83
2023-03-24T05:36:47.818Z,94.62
2023-03-24T05:37:28.734Z,94.36
2023-03-24T05:38:08.819Z,94.44
2023-03-24T05:38:48.757Z,94.74
2023-03-24T05:39:28.821Z,94.34
2023-03-24T05:40:09.724Z,94.99
2023-03-24T05:40:49.822Z,95.08
2023-03-24T05:41:29.704Z,94.76
2023-03-24T05:42:10.077Z,94.72
2023-03-24T05:42:50.786Z,95.11
2023-03-24T05:43:31.799Z,95.42
2023-03-24T05:44:12.742Z,95.03
2023-03-24T05:44:52.792Z,95.21
2023-03-24T05:45:33.726Z,95.61
2023-03-24T05:46:14.866Z,95.70
2023-03-24T05:46:54.694Z,95.31
2023-03-24T05:47:34.829Z,95.14
2023-03-24T05:48:15.726Z,95.03
2023-03-24T05:48:55.808Z,94.91
2023-03-24T05:49:35.777Z,95.52
2023-03-24T05:50:16.783Z,95.43
2023-03-24T05:50:59.718Z,95.21
2023-03-24T05:51:39.800Z,95.47
2023-03-24T05:52:26.104Z,95.18
2023-03-24T05:53:07.797Z,95.47
2023-03-24T05:53:47.682Z,95.86
2023-03-24T05:54:27.782Z,95.55
2023-03-24T05:55:08.682Z,95.44
2023-03-24T05:55:48.838Z,95.72
2023-03-24T05:56:29.762Z,95.58
2023-03-24T05:57:11.011Z,95.88
2023-03-24T05:57:50.698Z,96.11
2023-03-24T05:58:30.782Z,96.13
2023-03-24T05:59:11.689Z,96.11
2023-03-24T05:59:53.137Z,96.11
2023-03-24T06:00:33.720Z,96.35
2023-03-24T06:01:18.819Z,96.85
2023-03-24T06:01:59.736Z,96.98
2023-03-24T06:02:40.097Z,97.10
2023-03-24T06:03:20.811Z,97.33
2023-03-24T06:04:01.040Z,97.08
2023-03-24T06:04:41.748Z,97.06
2023-03-24T06:05:23.206Z,97.79
2023-03-24T06:06:03.694Z,98.36
2023-03-24T06:06:58.672Z,98.31
2023-03-24T06:07:54.682Z,98.17
2023-03-24T06:08:53.706Z,98.24
2023-03-24T06:09:48.681Z,98.47
2023-03-24T06:10:44.678Z,98.51
2023-03-24T06:11:26.705Z,98.85
2023-03-24T06:12:10.838Z,98.47
2023-03-24T06:12:52.664Z,98.75
2023-03-24T06:13:32.773Z,98.63
2023-03-24T06:14:15.695Z,98.73
2023-03-24T06:14:55.737Z,98.64
2023-03-24T06:15:37.750Z,98.66
2023-03-24T06:16:18.975Z,98.58
2023-03-24T06:16:59.692Z,98.52
2023-03-24T06:17:43.136Z,98.44
2023-03-24T06:18:24.707Z,98.16
2023-03-24T06:19:06.688Z,97.95
2023-03-24T06:19:55.879Z,98.47
2023-03-24T06:20:36.140Z,98.09
2023-03-24T06:21:17.677Z,98.42
2023-03-24T06:22:09.731Z,98.02
2023-03-24T06:23:05.677Z,98.39
2023-03-24T06:23:59.703Z,97.87
2023-03-24T06:24:56.665Z,98.07
2023-03-24T06:25:50.669Z,98.00
2023-03-24T06:28:27.613Z,98.71
2023-03-24T06:29:24.629Z,98.61
2023-03-24T06:30:21.663Z,98.96
2023-03-24T06:31:21.561Z,98.62
2023-03-24T06:32:01.581Z,98.30
2023-03-24T06:32:43.297Z,98.39
2023-03-24T06:33:24.590Z,98.35
2023-03-24T06:34:04.604Z,98.22
2023-03-24T06:34:40.419Z,98.39
2023-03-24T06:35:27.583Z,98.46
2023-03-24T06:36:02.021Z,98.77
2023-03-24T06:36:48.584Z,98.62
2023-03-24T06:37:22.963Z,98.66
2023-03-24T06:38:10.595Z,99.14
2023-03-24T06:38:45.415Z,98.75
2023-03-24T06:39:25.655Z,98.85
2023-03-24T06:40:12.987Z,99.13
2023-03-24T06:40:53.622Z,99.32
2023-03-24T06:41:33.679Z,99.63
2023-03-24T06:42:13.577Z,99.74
2023-03-24T06:42:53.725Z,99.50
2023-03-24T06:43:33.602Z,99.99
2023-03-24T06:44:13.692Z,99.99
2023-03-24T06:44:53.623Z,100.00
2023-03-24T06:45:34.771Z,99.70
2023-03-24T06:46:16.623Z,100.00
2023-03-24T06:46:56.706Z,99.78
2023-03-24T06:47:36.685Z,99.79
2023-03-24T06:48:16.754Z,99.76
2023-03-24T06:48:57.608Z,99.44
2023-03-24T06:49:37.731Z,99.49
2023-03-24T06:50:18.651Z,99.62
2023-03-24T06:50:59.684Z,99.57
2023-03-24T06:51:40.634Z,99.36
2023-03-24T06:52:20.874Z,99.37
2023-03-24T06:53:00.604Z,99.34
2023-03-24T06:53:41.364Z,99.10
2023-03-24T06:54:22.560Z,99.30
2023-03-24T06:55:02.691Z,99.16
2023-03-24T06:55:43.720Z,99.07
2023-03-24T06:56:23.692Z,99.48
2023-03-24T06:57:04.611Z,99.92
2023-03-24T06:57:44.713Z,99.72
2023-03-24T06:58:25.595Z,100.00
2023-03-24T06:59:05.694Z,100.00
2023-03-24T06:59:45.675Z,100.00
2023-03-24T07:00:26.838Z,100.00
2023-03-24T07:01:08.592Z,100.00
2023-03-24T07:01:49.567Z,100.00
2023-03-24T07:02:52.678Z,100.00
2023-03-24T07:03:48.690Z,100.00
2023-03-24T07:04:42.565Z,100.00
2023-03-24T07:05:36.558Z,100.00
2023-03-24T07:06:24.591Z,100.00
2023-03-24T07:07:14.753Z,100.00
2023-03-24T07:08:30.100Z,100.00
2023-03-24T07:09:01.619Z,100.00
2023-03-24T07:09:48.574Z,100.00
2023-03-24T07:10:22.737Z,100.00
2023-03-24T07:11:10.570Z,100.00
2023-03-24T07:11:51.605Z,100.00
2023-03-24T07:12:45.565Z,100.00
2023-03-24T07:13:39.561Z,100.00
2023-03-24T07:14:33.569Z,99.66
2023-03-24T07:15:27.570Z,99.52
2023-03-24T07:16:22.700Z,99.32
2023-03-24T07:17:10.604Z,99.45
2023-03-24T07:17:44.730Z,99.69
2023-03-24T07:18:32.589Z,99.53
2023-03-24T07:19:06.668Z,99.18
2023-03-24T07:19:53.560Z,99.18
2023-03-24T07:20:27.671Z,98.99
2023-03-24T07:21:14.555Z,99.53
2023-03-24T07:21:50.176Z,99.17
2023-03-24T07:22:31.587Z,98.79
2023-03-24T07:23:11.753Z,99.43
2023-03-24T07:23:52.593Z,99.34
2023-03-24T07:24:32.681Z,98.74
2023-03-24T07:25:14.570Z,98.43
2023-03-24T07:25:54.758Z,98.76
2023-03-24T07:26:35.544Z,99.12
2023-03-24T07:27:15.743Z,98.75
2023-03-24T07:27:56.573Z,98.21
2023-03-24T07:28:36.837Z,97.96
2023-03-24T07:29:18.546Z,98.07
2023-03-24T07:29:58.695Z,97.98
2023-03-24T07:30:51.632Z,98.41
2023-03-24T07:31:47.591Z,98.27
2023-03-24T07:32:45.579Z,98.44
2023-03-24T07:33:26.655Z,97.90
2023-03-24T07:34:06.632Z,97.70
2023-03-24T07:34:47.558Z,97.88
2023-03-24T07:35:27.841Z,97.50
2023-03-24T07:36:07.636Z,97.52
2023-03-24T07:36:47.638Z,97.69
2023-03-24T07:37:28.537Z,97.55
2023-03-24T07:38:10.382Z,96.93
2023-03-24T07:38:51.559Z,96.89
2023-03-24T07:39:45.512Z,97.48
2023-03-24T07:40:41.517Z,97.22
2023-03-24T07:41:36.551Z,97.36
2023-03-24T07:42:30.531Z,97.12
2023-03-24T07:43:25.556Z,96.69
2023-03-24T07:44:12.585Z,97.21
2023-03-24T07:44:46.668Z,97.40
2023-03-24T07:45:34.604Z,97.20
2023-03-24T07:46:09.619Z,98.15
2023-03-24T07:46:57.510Z,97.53
2023-03-24T07:47:31.706Z,97.60
2023-03-24T07:48:19.759Z,97.54
2023-03-24T07:48:53.683Z,97.34
2023-03-24T07:49:34.547Z,96.96
2023-03-24T07:50:15.711Z,96.75
2023-03-24T07:50:56.523Z,97.27
2023-03-24T07:51:39.378Z,96.99
2023-03-24T07:52:20.526Z,97.22
2023-03-24T07:53:00.747Z,97.67
2023-03-24T07:53:40.509Z,97.76
2023-03-24T07:54:21.386Z,97.64
2023-03-24T07:55:02.583Z,97.70
2023-03-24T07:55:45.739Z,97.42
2023-03-24T07:56:25.594Z,96.71
2023-03-24T07:57:08.964Z,96.23
2023-03-24T07:57:53.519Z,96.67
2023-03-24T07:58:33.675Z,97.20
2023-03-24T07:59:16.508Z,97.08
2023-03-24T07:59:56.686Z,96.90
2023-03-24T08:00:39.558Z,96.35
2023-03-24T08:01:20.648Z,96.46
2023-03-24T08:02:02.562Z,96.84
2023-03-24T08:02:42.766Z,96.38
2023-03-24T08:03:23.640Z,96.61
2023-03-24T08:04:04.543Z,96.45
2023-03-24T08:04:44.552Z,96.67
2023-03-24T08:05:29.648Z,96.41
2023-03-24T08:06:11.518Z,95.69
2023-03-24T08:06:53.577Z,95.76
2023-03-24T08:07:34.729Z,95.77
2023-03-24T08:08:14.634Z,95.68
2023-03-24T08:08:55.777Z,95.65
2023-03-24T08:09:35.700Z,95.29
2023-03-24T08:10:22.520Z,94.92
2023-03-24T08:11:02.596Z,94.94
2023-03-24T08:11:43.532Z,94.86
2023-03-24T08:12:23.646Z,94.28
2023-03-24T08:13:05.495Z,94.63
2023-03-24T08:13:45.632Z,94.78
2023-03-24T08:14:26.523Z,94.20
2023-03-24T08:15:07.477Z,93.69
2023-03-24T08:15:48.761Z,93.82
2023-03-24T08:16:29.659Z,92.89
2023-03-24T08:17:10.532Z,93.15
2023-03-24T08:17:51.697Z,93.38
2023-03-24T08:18:32.498Z,92.31
2023-03-24T08:19:12.655Z,92.77
2023-03-24T08:20:00.024Z,92.82
2023-03-24T08:20:41.980Z,92.91
2023-03-24T08:21:21.513Z,92.48
2023-03-24T08:22:02.118Z,92.44
2023-03-24T08:22:45.514Z,92.42
2023-03-24T08:23:25.594Z,92.64
2023-03-24T08:24:06.502Z,92.42
2023-03-24T08:24:46.724Z,92.77
2023-03-24T08:25:30.473Z,92.19
2023-03-24T08:26:10.757Z,92.10
2023-03-24T08:26:53.515Z,92.59
2023-03-24T08:27:47.527Z,92.37
2023-03-24T08:28:41.507Z,92.37
2023-03-24T08:29:35.526Z,93.03
2023-03-24T08:30:33.516Z,93.07
2023-03-24T08:31:27.514Z,92.63
2023-03-24T08:32:21.502Z,92.35
2023-03-24T08:33:11.427Z,92.38
2023-03-24T08:33:47.110Z,92.23
2023-03-24T08:34:35.493Z,92.56
2023-03-24T08:35:10.104Z,92.37
2023-03-24T08:35:58.535Z,92.48
2023-03-24T08:36:32.601Z,92.50
2023-03-24T08:37:19.523Z,92.59
2023-03-24T08:37:53.577Z,92.76
2023-03-24T08:38:37.487Z,92.82
2023-03-24T08:39:17.683Z,92.84
2023-03-24T08:39:58.586Z,92.87
2023-03-24T08:40:38.654Z,92.60
2023-03-24T08:41:18.476Z,92.46
2023-03-24T08:41:58.653Z,92.84
2023-03-24T08:42:38.474Z,92.73
2023-03-24T08:43:23.289Z,93.08
2023-03-24T08:44:06.872Z,93.02
2023-03-24T08:44:48.556Z,92.73
2023-03-24T08:45:33.471Z,92.65
2023-03-24T08:46:16.513Z,92.70
2023-03-24T08:46:56.481Z,92.74
2023-03-24T08:47:36.652Z,92.88
2023-03-24T08:48:17.484Z,92.68
2023-03-24T08:48:57.560Z,92.69
2023-03-24T08:49:37.494Z,92.73
2023-03-24T08:50:18.571Z,92.90
2023-03-24T08:50:58.466Z,92.79
2023-03-24T08:51:39.576Z,92.65
2023-03-24T08:52:20.440Z,92.94
2023-03-24T08:53:02.571Z,93.35
2023-03-24T08:53:42.490Z,92.70
2023-03-24T08:54:23.818Z,92.80
2023-03-24T08:55:04.524Z,92.71
2023-03-24T08:55:45.582Z,92.52
2023-03-24T08:56:27.497Z,92.16
2023-03-24T08:57:07.681Z,92.03
2023-03-24T08:57:47.463Z,92.20
2023-03-24T08:58:28.561Z,92.01
2023-03-24T08:59:08.490Z,92.29
2023-03-24T08:59:50.211Z,91.72
2023-03-24T09:00:32.486Z,91.87
2023-03-24T09:01:39.203Z,91.60
2023-03-24T09:02:52.595Z,91.17
2023-03-24T09:03:26.553Z,91.36
2023-03-24T09:04:01.485Z,91.58
2023-03-24T09:04:42.479Z,91.54
2023-03-24T09:05:20.026Z,91.40
2023-03-24T09:06:05.491Z,91.22
2023-03-24T09:06:45.599Z,91.48
2023-03-24T09:07:26.466Z,91.25
2023-03-24T09:08:08.044Z,91.40
2023-03-24T09:08:49.454Z,91.20
2023-03-24T09:09:29.538Z,91.04
2023-03-24T09:10:11.438Z,90.68
2023-03-24T09:10:52.621Z,91.24
2023-03-24T09:11:32.470Z,90.99
2023-03-24T09:12:13.531Z,91.16
2023-03-24T09:12:53.483Z,90.93
2023-03-24T09:13:33.612Z,91.02
2023-03-24T09:14:13.455Z,90.41
2023-03-24T09:14:57.591Z,90.48
2023-03-24T09:15:38.475Z,90.79
2023-03-24T09:16:19.607Z,90.74
2023-03-24T09:16:59.452Z,90.17
2023-03-24T09:17:40.655Z,90.16
2023-03-24T09:18:20.433Z,89.76
2023-03-24T09:19:01.760Z,89.86
2023-03-24T09:19:41.483Z,90.38
2023-03-24T09:20:22.556Z,90.08
2023-03-24T09:21:02.458Z,90.25
2023-03-24T09:21:42.794Z,90.06
2023-03-24T09:22:22.464Z,89.99
2023-03-24T09:23:02.547Z,90.18
2023-03-24T09:23:42.427Z,90.27
2023-03-24T09:24:23.551Z,89.81
2023-03-24T09:25:03.445Z,90.01
2023-03-24T09:25:44.536Z,89.06
2023-03-24T09:26:24.464Z,89.68
2023-03-24T09:27:05.660Z,89.63
2023-03-24T09:27:46.488Z,89.79
2023-03-24T09:28:28.579Z,89.53
2023-03-24T09:29:09.459Z,90.03
2023-03-24T09:29:49.516Z,89.79
2023-03-24T09:30:30.960Z,90.01
2023-03-24T09:31:12.561Z,89.54
2023-03-24T09:31:52.456Z,89.82
2023-03-24T09:32:34.060Z,89.91
2023-03-24T09:33:15.509Z,89.90
2023-03-24T09:33:55.579Z,89.30
2023-03-24T09:34:35.449Z,89.02
2023-03-24T09:35:16.619Z,88.74
2023-03-24T09:36:08.449Z,87.76
2023-03-24T09:36:49.532Z,87.79
2023-03-24T09:37:29.504Z,87.76
2023-03-24T09:38:13.250Z,88.15
2023-03-24T09:38:53.470Z,87.42
2023-03-24T09:39:33.554Z,87.53
2023-03-24T09:40:15.453Z,87.80
2023-03-24T09:41:03.192Z,87.56
2023-03-24T09:41:43.427Z,87.22
2023-03-24T09:42:30.560Z,86.59
2023-03-24T09:43:26.419Z,86.90
2023-03-24T09:44:17.506Z,86.64
2023-03-24T09:44:59.001Z,86.84
2023-03-24T09:46:03.443Z,87.08
2023-03-24T09:46:45.709Z,87.05
2023-03-24T09:48:00.489Z,86.13
2023-03-24T09:48:41.208Z,85.99
2023-03-24T09:49:41.430Z,85.93